| Date | Time | Temp. (oF) | Dew Point (oF) | Rel. Hum. (%) | Press. (in.) | Wind Dir. | Wind Speed (mph) | Hourly Rainfall (in.) |
|
|---|---|---|---|---|---|---|---|---|---|
| 1 | 02/18 | 00:00 | 21 | 6 | 52 | 30.41 | W | 11 | 0.00 |
| 2 | 02/17 | 23:00 | 22 | 5 | 49 | 30.38 | W | 6 | 0.00 |
| 3 | 02/17 | 22:00 | 23 | 6 | 49 | 30.37 | W | 7 | 0.00 |
| 4 | 02/17 | 21:00 | 24 | 5 | 45 | 30.35 | NW | 8 | 0.00 |
| 5 | 02/17 | 20:00 | 26 | 6 | 44 | 30.31 | W | 10 | 0.00 |
| 6 | 02/17 | 19:00 | 26 | 7 | 45 | 30.27 | WNW | 9 | 0.00 |
| 7 | 02/17 | 18:00 | 27 | 7 | 44 | 30.21 | NW | 18 | 0.00 |
| 8 | 02/17 | 17:00 | 29 | 8 | 41 | 30.16 | NW | 10 | 0.00 |
| 9 | 02/17 | 16:00 | 31 | 8 | 39 | 30.12 | WNW | 10 | 0.00 |
| 10 | 02/17 | 15:00 | 32 | 11 | 43 | 30.09 | WNW | 7 | 0.00 |
| 11 | 02/17 | 14:00 | 32 | 11 | 42 | 30.07 | WNW | 20 | 0.00 |
| 12 | 02/17 | 13:00 | 32 | 10 | 40 | 30.07 | NNW | 22 | 0.00 |
| 13 | 02/17 | 12:00 | 32 | 10 | 40 | 30.07 | W | 25 | 0.00 |
| 14 | 02/17 | 11:00 | 31 | 13 | 47 | 30.07 | NW | 23 | 0.00 |
| 15 | 02/17 | 10:00 | 33 | 18 | 55 | 30.04 | NNW | 19 | 0.00 |
| 16 | 02/17 | 09:00 | 34 | 20 | 58 | 30.01 | WNW | 14 | 0.00 |
| 17 | 02/17 | 08:00 | 35 | 28 | 76 | 29.97 | WNW | 5 | 0.00 |
| 18 | 02/17 | 07:00 | 35 | 28 | 76 | 29.94 | NW | 8 | 0.00 |
| 19 | 02/17 | 06:00 | 36 | 31 | 83 | 29.89 | NW | 11 | 0.00 |
| 20 | 02/17 | 05:00 | 37 | 33 | 86 | 29.85 | NW | 10 | 0.00 |
| 21 | 02/17 | 04:00 | 39 | 36 | 90 | 29.84 | WSW | 10 | 0.00 |
| 22 | 02/17 | 03:00 | 39 | 39 | 100 | 29.84 | NW | 4 | 0.00 |
| 23 | 02/17 | 02:00 | 39 | 39 | 100 | 29.86 | NW | 3 | 0.00 |
| 24 | 02/17 | 01:00 | 39 | 39 | 100 | 29.86 | W | 3 | 0.00 |